Etihad Airways Virtual Airport Information Service

Abu Dhabi International Airport

ICAO: OMAA Country: United Arab Emirates
Latitude: 24.433 Longitude: 54.6511
Latest Arrival : ETD318 (OERK-OMAA) Latest Departure : ETD317 (OMAA-OERK)


WX CaptureLIVE
Data provided by noaa.gov | Recorded at 15:42:09

METAR : OMAA 201500Z 32009KT CAVOK 31/25 Q1009 NOSIG

TAF : OMAA 200500Z 2006/2112 19005KT 8000 NSC BECMG 2006/2008 32012KT BECMG 2019/2021 06006KT PROB40 2023/2105 3000 BR BKN005 PROB30 TEMPO 2101/2105 14005KT 0200 FG VV001 BECMG 2108/2110 32015KT


Runway Data for OMAA
Data provided by openaviationdata.com

Runway ID Mag Var Hdg Length Elevation Surface ILS Freq ILS Id ILS Slope

Abu Dhabi International Airport, United Arab Emirates
Use only for reference purposes